createdAt,value
2023-04-01T00:02:37.251Z,8.36
2023-04-01T00:05:06.662Z,8.33
2023-04-01T00:07:34.359Z,8.33
2023-04-01T00:10:01.927Z,8.31
2023-04-01T00:12:29.545Z,8.31
2023-04-01T00:14:57.252Z,8.31
2023-04-01T00:17:24.974Z,8.31
2023-04-01T00:19:52.605Z,8.29
2023-04-01T00:22:20.159Z,8.29
2023-04-01T00:24:47.881Z,8.27
2023-04-01T00:27:15.953Z,8.27
2023-04-01T00:29:44.593Z,8.28
2023-04-01T00:32:12.549Z,8.25
2023-04-01T00:34:40.938Z,8.25
2023-04-01T00:37:09.504Z,8.25
2023-04-01T00:39:37.342Z,8.24
2023-04-01T00:42:05.386Z,8.25
2023-04-01T00:44:35.323Z,8.25
2023-04-01T00:47:03.277Z,8.26
2023-04-01T00:49:36.372Z,8.26
2023-04-01T00:52:06.601Z,8.22
2023-04-01T00:54:36.158Z,8.19
2023-04-01T00:57:11.113Z,8.23
2023-04-01T00:59:44.340Z,8.21
2023-04-01T01:02:14.835Z,8.21
2023-04-01T01:04:43.074Z,8.19
2023-04-01T01:07:28.509Z,8.19
2023-04-01T01:10:17.376Z,8.15
2023-04-01T01:13:06.676Z,8.15
2023-04-01T01:15:47.937Z,8.16
2023-04-01T01:18:44.489Z,8.19
2023-04-01T01:21:23.881Z,8.18
2023-04-01T01:24:14.809Z,8.16
2023-04-01T01:26:53.142Z,8.16
2023-04-01T01:29:43.541Z,8.14
2023-04-01T01:32:29.667Z,8.09
2023-04-01T01:35:25.540Z,8.01
2023-04-01T01:38:04.362Z,7.94
2023-04-01T01:40:34.938Z,7.93
2023-04-01T01:43:09.384Z,7.89
2023-04-01T01:45:41.744Z,7.87
2023-04-01T01:48:12.032Z,7.86
2023-04-01T01:50:41.781Z,7.81
2023-04-01T01:53:12.741Z,7.82
2023-04-01T01:55:46.480Z,7.80
2023-04-01T01:58:26.077Z,7.71
2023-04-01T02:00:58.009Z,7.68
2023-04-01T02:03:28.087Z,7.65
2023-04-01T02:05:58.928Z,7.64
2023-04-01T02:08:36.556Z,7.65
2023-04-01T02:11:07.833Z,7.65
2023-04-01T02:13:56.033Z,7.63
2023-04-01T02:16:48.045Z,7.65
2023-04-01T02:19:23.604Z,7.63
2023-04-01T02:21:56.563Z,7.65
2023-04-01T02:24:26.258Z,7.64
2023-04-01T02:26:54.582Z,7.62
2023-04-01T02:29:26.207Z,7.56
2023-04-01T02:31:55.841Z,7.52
2023-04-01T02:34:25.336Z,7.50
2023-04-01T02:36:55.009Z,7.47
2023-04-01T02:39:22.940Z,7.42
2023-04-01T02:41:50.524Z,7.36
2023-04-01T02:44:18.133Z,7.31
2023-04-01T02:46:45.816Z,7.29
2023-04-01T02:49:13.662Z,7.22
2023-04-01T02:51:41.216Z,7.16
2023-04-01T02:54:08.971Z,7.10
2023-04-01T02:56:36.782Z,7.03
2023-04-01T02:59:04.388Z,6.97
2023-04-01T03:01:31.920Z,6.91
2023-04-01T03:03:59.613Z,6.84
2023-04-01T03:06:27.275Z,6.77
2023-04-01T03:08:54.885Z,6.72
2023-04-01T03:11:22.525Z,6.65
2023-04-01T03:13:50.420Z,6.58
2023-04-01T03:16:18.003Z,6.52
2023-04-01T03:18:45.904Z,6.46
2023-04-01T03:21:22.637Z,6.41
2023-04-01T03:23:51.553Z,6.37
2023-04-01T03:26:19.537Z,6.31
2023-04-01T03:28:47.168Z,6.27
2023-04-01T03:31:15.803Z,6.24
2023-04-01T03:33:50.400Z,6.20
2023-04-01T03:36:19.189Z,6.16
2023-04-01T03:38:47.842Z,6.13
2023-04-01T03:41:20.756Z,6.08
2023-04-01T03:43:48.799Z,6.04
2023-04-01T03:46:21.366Z,6.01
2023-04-01T03:48:49.258Z,5.97
2023-04-01T03:51:16.808Z,5.94
2023-04-01T03:53:44.538Z,5.91
2023-04-01T03:56:13.109Z,5.94
2023-04-01T03:58:40.779Z,6.01
2023-04-01T04:01:22.475Z,6.07
2023-04-01T04:03:53.480Z,6.13
2023-04-01T04:06:23.722Z,6.18
2023-04-01T04:08:51.733Z,6.23
2023-04-01T04:11:22.971Z,6.32
2023-04-01T04:13:53.846Z,6.37
2023-04-01T04:16:22.059Z,6.44
2023-04-01T04:18:56.120Z,6.49
2023-04-01T04:21:24.334Z,6.54
2023-04-01T04:23:52.567Z,6.56
2023-04-01T04:26:21.308Z,6.58
2023-04-01T04:28:58.082Z,6.60
2023-04-01T04:31:27.701Z,6.64
2023-04-01T04:33:57.651Z,6.66
2023-04-01T04:36:25.350Z,6.67
2023-04-01T04:38:53.912Z,6.73
2023-04-01T04:41:23.255Z,6.78
2023-04-01T04:43:54.499Z,6.85
2023-04-01T04:46:23.984Z,6.88
2023-04-01T04:48:57.338Z,6.89
2023-04-01T04:51:25.170Z,6.92
2023-04-01T04:53:53.356Z,6.94
2023-04-01T04:56:28.347Z,7.00
2023-04-01T04:59:04.433Z,7.02
2023-04-01T05:01:42.513Z,7.02
2023-04-01T05:04:10.137Z,7.05
2023-04-01T05:06:37.664Z,7.10
2023-04-01T05:09:05.808Z,7.12
2023-04-01T05:11:33.310Z,7.14
2023-04-01T05:14:00.887Z,7.12
2023-04-01T05:16:29.394Z,7.14
2023-04-01T05:18:57.200Z,7.14
2023-04-01T05:21:24.975Z,7.13
2023-04-01T05:23:53.541Z,7.15
2023-04-01T05:26:21.342Z,7.16
2023-04-01T05:28:48.924Z,7.19
2023-04-01T05:31:16.574Z,7.20
2023-04-01T05:33:46.884Z,7.17
2023-04-01T05:36:16.460Z,7.20
2023-04-01T05:38:46.868Z,7.18
2023-04-01T05:41:16.180Z,7.19
2023-04-01T05:43:46.721Z,7.20
2023-04-01T05:46:33.462Z,7.18
2023-04-01T05:49:15.265Z,7.17
2023-04-01T05:51:43.452Z,7.20
2023-04-01T05:54:11.384Z,7.24
2023-04-01T05:56:39.739Z,7.26
2023-04-01T05:59:07.313Z,7.28
2023-04-01T06:01:34.918Z,7.30
2023-04-01T06:04:02.594Z,7.31
2023-04-01T06:06:33.522Z,7.35
2023-04-01T06:09:19.241Z,7.37
2023-04-01T06:12:26.638Z,7.43
2023-04-01T06:15:11.846Z,7.47
2023-04-01T06:17:53.632Z,7.50
2023-04-01T06:20:30.820Z,7.53
2023-04-01T06:23:11.367Z,7.51
2023-04-01T06:25:46.384Z,7.49
2023-04-01T06:28:22.910Z,7.50
2023-04-01T06:30:50.496Z,7.54
2023-04-01T06:33:49.927Z,7.57
2023-04-01T06:36:48.477Z,7.59
2023-04-01T06:39:57.955Z,7.59
2023-04-01T06:42:38.054Z,7.62
2023-04-01T06:45:35.834Z,7.64
2023-04-01T06:48:55.067Z,7.67
2023-04-01T06:52:19.913Z,7.67
2023-04-01T06:55:20.287Z,7.71
2023-04-01T06:58:28.616Z,7.74
2023-04-01T07:01:00.931Z,7.78
2023-04-01T07:03:36.940Z,7.82
2023-04-01T07:06:13.493Z,7.90
2023-04-01T07:08:51.953Z,7.96
2023-04-01T07:11:30.728Z,8.01
2023-04-01T07:14:37.807Z,8.12
2023-04-01T07:17:45.054Z,8.18
2023-04-01T07:20:27.918Z,8.25
2023-04-01T07:23:00.064Z,8.33
2023-04-01T07:25:59.627Z,8.49
2023-04-01T07:28:36.534Z,8.66
2023-04-01T07:31:49.690Z,8.76
2023-04-01T07:34:29.382Z,8.78
2023-04-01T07:37:09.019Z,8.78
2023-04-01T07:40:01.600Z,8.77
2023-04-01T07:43:15.074Z,8.79
2023-04-01T07:45:53.437Z,8.79
2023-04-01T07:48:21.116Z,8.78
2023-04-01T07:51:11.257Z,8.75
2023-04-01T07:54:05.317Z,8.69
2023-04-01T07:56:48.211Z,8.68
2023-04-01T07:59:46.914Z,8.68
2023-04-01T08:02:40.097Z,8.67
2023-04-01T08:05:28.520Z,8.76
2023-04-01T08:08:16.280Z,8.81
2023-04-01T08:11:23.600Z,8.83
2023-04-01T08:14:41.669Z,8.78
2023-04-01T08:17:45.961Z,8.65
2023-04-01T08:20:43.790Z,8.61
2023-04-01T08:23:11.484Z,8.64
2023-04-01T08:25:48.234Z,8.74
2023-04-01T08:28:22.028Z,8.82
2023-04-01T08:30:59.670Z,8.83
2023-04-01T08:33:33.010Z,8.84
2023-04-01T08:36:13.001Z,8.87
2023-04-01T08:38:47.892Z,8.93
2023-04-01T08:41:43.279Z,8.93
2023-04-01T08:44:50.708Z,9.03
2023-04-01T08:47:40.459Z,9.17
2023-04-01T08:50:23.341Z,9.27
2023-04-01T08:53:37.829Z,9.37
2023-04-01T08:56:31.044Z,9.38
2023-04-01T08:59:21.824Z,9.32
2023-04-01T09:02:13.830Z,9.28
2023-04-01T09:05:24.129Z,9.31
2023-04-01T09:08:22.784Z,9.39
2023-04-01T09:11:05.822Z,9.41
2023-04-01T09:14:41.892Z,9.54
2023-04-01T09:17:53.322Z,9.71
2023-04-01T09:20:52.208Z,9.91
2023-04-01T09:23:38.881Z,10.20
2023-04-01T09:26:23.682Z,12.01
2023-04-01T09:29:14.605Z,12.92
2023-04-01T09:31:49.326Z,12.79
2023-04-01T09:34:55.304Z,12.57
2023-04-01T09:37:45.512Z,13.17
2023-04-01T09:40:19.955Z,13.03
2023-04-01T09:43:17.469Z,12.69
2023-04-01T09:45:48.112Z,12.35
2023-04-01T09:48:44.270Z,12.13
2023-04-01T09:51:46.891Z,12.74
2023-04-01T09:54:28.145Z,12.89
2023-04-01T09:57:26.830Z,12.48
2023-04-01T10:00:31.184Z,11.91
2023-04-01T10:03:36.860Z,11.38
2023-04-01T10:06:07.905Z,11.04
2023-04-01T10:09:03.756Z,10.78
2023-04-01T10:11:50.020Z,10.58
2023-04-01T10:14:39.659Z,10.49
2023-04-01T10:17:32.821Z,10.54
2023-04-01T10:20:18.836Z,10.60
2023-04-01T10:22:50.384Z,10.92
2023-04-01T10:25:38.582Z,12.14
2023-04-01T10:28:33.238Z,13.95
2023-04-01T10:31:44.014Z,14.76
2023-04-01T10:34:45.757Z,14.29
2023-04-01T10:37:13.362Z,13.67
2023-04-01T10:39:51.028Z,13.17
2023-04-01T10:43:00.535Z,12.57
2023-04-01T10:46:07.087Z,12.08
2023-04-01T10:48:41.205Z,11.77
2023-04-01T10:51:43.082Z,11.64
2023-04-01T10:54:29.075Z,11.62
2023-04-01T10:57:41.123Z,11.76
2023-04-01T11:00:41.156Z,11.77
2023-04-01T11:04:03.021Z,11.62
2023-04-01T11:07:15.091Z,11.41
2023-04-01T11:10:06.683Z,11.38
2023-04-01T11:12:59.878Z,11.33
2023-04-01T11:15:58.984Z,11.32
2023-04-01T11:18:46.924Z,11.14
2023-04-01T11:21:17.809Z,10.97
2023-04-01T11:24:02.218Z,10.85
2023-04-01T11:26:41.887Z,10.74
2023-04-01T11:29:27.854Z,10.71
2023-04-01T11:32:21.543Z,10.85
2023-04-01T11:35:10.723Z,11.10
2023-04-01T11:37:47.477Z,11.39
2023-04-01T11:40:56.857Z,11.60
2023-04-01T11:43:42.993Z,11.76
2023-04-01T11:47:00.375Z,11.78
2023-04-01T11:50:03.725Z,11.73
2023-04-01T11:53:18.579Z,11.54
2023-04-01T11:56:28.266Z,11.28
2023-04-01T11:59:29.732Z,11.05
2023-04-01T12:02:12.631Z,10.79
2023-04-01T12:05:03.990Z,10.59
2023-04-01T12:08:04.448Z,10.52
2023-04-01T12:10:43.301Z,10.45
2023-04-01T12:13:13.688Z,10.37
2023-04-01T12:16:03.553Z,10.23
2023-04-01T12:18:39.682Z,10.10
2023-04-01T12:21:09.961Z,10.04
2023-04-01T12:23:48.826Z,10.00
2023-04-01T12:26:31.570Z,9.94
2023-04-01T12:29:17.810Z,9.93
2023-04-01T12:32:15.932Z,10.00
2023-04-01T12:34:59.482Z,10.15
2023-04-01T12:37:35.621Z,10.25
2023-04-01T12:40:18.328Z,10.39
2023-04-01T12:42:55.086Z,10.57
2023-04-01T12:45:55.888Z,10.71
2023-04-01T12:48:32.531Z,10.79
2023-04-01T12:51:12.777Z,10.79
2023-04-01T12:54:05.230Z,10.75
2023-04-01T12:56:59.465Z,10.68
2023-04-01T12:59:45.843Z,10.63
2023-04-01T13:02:14.983Z,10.67
2023-04-01T13:05:16.781Z,10.69
2023-04-01T13:07:50.624Z,10.71
2023-04-01T13:10:21.309Z,10.65
2023-04-01T13:12:58.058Z,10.60
2023-04-01T13:16:16.519Z,10.59
2023-04-01T13:18:50.447Z,10.64
2023-04-01T13:21:32.884Z,10.77
2023-04-01T13:24:01.177Z,10.91
2023-04-01T13:27:01.329Z,11.03
2023-04-01T13:29:43.985Z,11.04
2023-04-01T13:32:43.374Z,11.03
2023-04-01T13:35:23.331Z,10.97
2023-04-01T13:37:53.904Z,10.87
2023-04-01T13:40:24.191Z,10.85
2023-04-01T13:42:58.783Z,10.77
2023-04-01T13:45:39.529Z,10.69
2023-04-01T13:48:45.852Z,10.60
2023-04-01T13:51:32.192Z,10.51
2023-04-01T13:54:28.952Z,10.45
2023-04-01T13:57:27.400Z,10.35
2023-04-01T13:59:58.171Z,10.35
2023-04-01T14:02:50.099Z,10.45
2023-04-01T14:05:43.337Z,10.63
2023-04-01T14:08:37.151Z,10.76
2023-04-01T14:11:33.001Z,10.91
2023-04-01T14:14:19.233Z,11.07
2023-04-01T14:17:15.459Z,11.20
2023-04-01T14:20:23.856Z,11.33
2023-04-01T14:23:14.925Z,11.46
2023-04-01T14:26:20.238Z,11.43
2023-04-01T14:29:09.659Z,11.27
2023-04-01T14:32:13.115Z,11.12
2023-04-01T14:34:46.669Z,10.89
2023-04-01T14:37:26.680Z,10.67
2023-04-01T14:40:21.188Z,10.49
2023-04-01T14:43:07.376Z,10.45
2023-04-01T14:45:53.394Z,10.46
2023-04-01T14:48:51.767Z,10.44
2023-04-01T14:51:29.633Z,10.37
2023-04-01T14:54:12.199Z,10.32
2023-04-01T14:56:45.981Z,10.32
2023-04-01T14:59:23.055Z,10.38
2023-04-01T15:02:22.531Z,10.48
2023-04-01T15:04:59.507Z,10.60
2023-04-01T15:07:50.874Z,10.65
2023-04-01T15:10:36.784Z,10.65
2023-04-01T15:13:14.885Z,10.71
2023-04-01T15:16:27.343Z,10.80
2023-04-01T15:19:20.247Z,10.88
2023-04-01T15:22:04.477Z,10.91
2023-04-01T15:24:38.132Z,10.82
2023-04-01T15:27:26.058Z,10.73
2023-04-01T15:29:53.583Z,10.67
2023-04-01T15:32:53.238Z,10.58
2023-04-01T15:35:33.121Z,10.57
2023-04-01T15:38:08.525Z,10.58
2023-04-01T15:40:57.583Z,10.57
2023-04-01T15:43:53.344Z,10.52
2023-04-01T15:46:46.150Z,10.51
2023-04-01T15:49:24.316Z,10.44
2023-04-01T15:52:25.729Z,10.43
2023-04-01T15:55:13.467Z,10.51
2023-04-01T15:57:49.794Z,10.58
2023-04-01T16:00:43.633Z,10.62
2023-04-01T16:03:29.609Z,10.70
2023-04-01T16:06:25.825Z,10.70
2023-04-01T16:09:21.577Z,10.70
2023-04-01T16:12:03.909Z,10.69
2023-04-01T16:14:37.254Z,10.71
2023-04-01T16:17:04.955Z,10.75
2023-04-01T16:19:51.186Z,10.79
2023-04-01T16:22:25.538Z,10.83
2023-04-01T16:25:33.567Z,10.79
2023-04-01T16:28:24.791Z,10.74
2023-04-01T16:31:11.201Z,10.68
2023-04-01T16:33:58.781Z,10.65
2023-04-01T16:36:43.508Z,10.62
2023-04-01T16:39:17.233Z,10.59
2023-04-01T16:41:53.618Z,10.56
2023-04-01T16:44:25.226Z,10.50
2023-04-01T16:47:14.139Z,10.42
2023-04-01T16:50:24.635Z,10.37
2023-04-01T16:53:17.529Z,10.34
2023-04-01T16:55:51.247Z,10.29
2023-04-01T16:58:28.473Z,10.29
2023-04-01T17:01:07.068Z,10.29
2023-04-01T17:03:50.600Z,10.31
2023-04-01T17:06:33.339Z,10.28
2023-04-01T17:09:24.288Z,10.27
2023-04-01T17:12:21.168Z,10.27
2023-04-01T17:15:07.485Z,10.27
2023-04-01T17:17:35.127Z,10.29
2023-04-01T17:20:08.057Z,10.29
2023-04-01T17:23:08.812Z,10.30
2023-04-01T17:26:00.995Z,10.30
2023-04-01T17:28:56.645Z,10.21
2023-04-01T17:31:27.084Z,10.18
2023-04-01T17:34:29.420Z,10.19
2023-04-01T17:37:08.655Z,10.17
2023-04-01T17:39:57.519Z,10.18
2023-04-01T17:42:58.799Z,10.16
2023-04-01T17:45:38.004Z,10.13
2023-04-01T17:48:25.483Z,10.12
2023-04-01T17:51:08.927Z,10.08
2023-04-01T17:54:04.233Z,10.07
2023-04-01T18:02:43.418Z,9.95
2023-04-01T18:06:08.960Z,9.90
2023-04-01T18:09:17.777Z,9.84
2023-04-01T18:12:06.370Z,9.79
2023-04-01T18:14:39.764Z,9.71
2023-04-01T18:17:12.959Z,9.64
2023-04-01T18:20:08.316Z,9.59
2023-04-01T18:22:44.170Z,9.55
2023-04-01T18:25:37.945Z,9.52
2023-04-01T18:28:24.354Z,9.44
2023-04-01T18:30:58.195Z,9.31
2023-04-01T18:33:37.222Z,9.26
2023-04-01T18:36:41.890Z,9.21
2023-04-01T18:39:15.921Z,9.18
2023-04-01T18:42:21.096Z,9.08
2023-04-01T18:45:11.433Z,9.04
2023-04-01T18:48:04.459Z,8.98
2023-04-01T18:50:56.638Z,8.94
2023-04-01T18:53:37.365Z,8.91
2023-04-01T18:56:26.672Z,8.89
2023-04-01T18:59:13.420Z,8.86
2023-04-01T19:02:06.007Z,8.84
2023-04-01T19:05:02.123Z,8.83
2023-04-01T19:07:38.589Z,8.81
2023-04-01T19:10:15.176Z,8.84
2023-04-01T19:13:11.328Z,8.86
2023-04-01T19:15:59.323Z,8.83
2023-04-01T19:18:42.019Z,8.81
2023-04-01T19:21:34.914Z,8.81
2023-04-01T19:24:27.165Z,8.81
2023-04-01T19:27:52.263Z,8.81
2023-04-01T19:30:57.488Z,8.71
2023-04-01T19:34:00.333Z,8.61
2023-04-01T19:36:42.283Z,8.49
2023-04-01T19:39:30.865Z,8.36
2023-04-01T19:42:01.448Z,8.26
2023-04-01T19:44:44.617Z,8.15
2023-04-01T19:47:41.212Z,8.06
2023-04-01T19:50:41.427Z,7.96
2023-04-01T19:53:26.357Z,7.89
2023-04-01T19:56:17.984Z,7.84
2023-04-01T19:59:00.456Z,7.78
2023-04-01T20:01:45.250Z,7.73
2023-04-01T20:04:26.481Z,7.72
2023-04-01T20:07:02.258Z,7.70
2023-04-01T20:09:43.430Z,7.68
2023-04-01T20:12:22.426Z,7.64
2023-04-01T20:14:57.546Z,7.61
2023-04-01T20:17:44.854Z,7.57
2023-04-01T20:20:13.371Z,7.53
2023-04-01T20:22:47.433Z,7.48
2023-04-01T20:25:27.535Z,7.43
2023-04-01T20:28:19.638Z,7.38
2023-04-01T20:30:59.086Z,7.34
2023-04-01T20:33:38.685Z,7.30
2023-04-01T20:36:37.216Z,7.25
2023-04-01T20:39:35.485Z,7.19
2023-04-01T20:42:14.299Z,7.13
2023-04-01T20:45:19.467Z,7.07
2023-04-01T20:48:12.177Z,7.01
2023-04-01T20:50:53.063Z,6.97
2023-04-01T20:53:38.320Z,6.92
2023-04-01T20:56:19.044Z,6.88
2023-04-01T20:59:20.826Z,6.84
2023-04-01T21:01:51.901Z,6.79
2023-04-01T21:04:25.507Z,6.73
2023-04-01T21:07:27.406Z,6.67
2023-04-01T21:10:05.019Z,6.61
2023-04-01T21:12:43.964Z,6.58
2023-04-01T21:15:39.569Z,6.57
2023-04-01T21:18:26.846Z,6.55
2023-04-01T21:21:22.778Z,6.54
2023-04-01T21:24:09.550Z,6.53
2023-04-01T21:26:46.147Z,6.52
2023-04-01T21:29:17.169Z,6.51
2023-04-01T21:31:57.180Z,6.50
2023-04-01T21:34:44.705Z,6.50
2023-04-01T21:37:31.139Z,6.48
2023-04-01T21:40:27.235Z,6.45
2023-04-01T21:43:28.504Z,6.43
2023-04-01T21:46:24.126Z,6.38
2023-04-01T21:49:28.447Z,6.31
2023-04-01T21:52:17.833Z,6.26
2023-04-01T21:55:00.937Z,6.22
2023-04-01T21:57:50.496Z,6.18
2023-04-01T22:00:39.542Z,6.14
2023-04-01T22:03:33.707Z,6.06
2023-04-01T22:06:16.492Z,6.02
2023-04-01T22:09:04.608Z,6.01
2023-04-01T22:11:57.143Z,6.00
2023-04-01T22:14:44.042Z,5.99
2023-04-01T22:18:15.320Z,6.01
2023-04-01T22:21:06.359Z,6.02
2023-04-01T22:23:47.219Z,6.05
2023-04-01T22:26:27.979Z,6.11
2023-04-01T22:29:27.769Z,6.18
2023-04-01T22:32:05.071Z,6.24
2023-04-01T22:34:49.438Z,6.27
2023-04-01T22:37:46.643Z,6.30
2023-04-01T22:40:31.423Z,6.29
2023-04-01T22:43:08.179Z,6.31
2023-04-01T22:46:17.827Z,6.32
2023-04-01T22:48:55.051Z,6.35
2023-04-01T22:51:30.664Z,6.34
2023-04-01T22:54:05.811Z,6.38
2023-04-01T22:56:41.417Z,6.40
2023-04-01T22:59:17.845Z,6.44
2023-04-01T23:02:02.002Z,6.50
2023-04-01T23:04:38.154Z,6.55
2023-04-01T23:07:25.585Z,6.59
2023-04-01T23:09:56.881Z,6.65
2023-04-01T23:12:26.795Z,6.71
2023-04-01T23:14:57.427Z,6.77
2023-04-01T23:17:43.280Z,6.84
2023-04-01T23:20:18.474Z,6.89
2023-04-01T23:23:17.510Z,6.93
2023-04-01T23:25:52.344Z,6.95
2023-04-01T23:28:44.284Z,6.96
2023-04-01T23:31:41.767Z,6.94
2023-04-01T23:34:15.116Z,6.93
2023-04-01T23:36:49.941Z,6.93
2023-04-01T23:39:26.518Z,6.95
2023-04-01T23:41:57.966Z,6.96
2023-04-01T23:44:27.061Z,6.95
2023-04-01T23:46:56.529Z,6.93
2023-04-01T23:49:36.857Z,6.89
2023-04-01T23:52:20.478Z,6.84
2023-04-01T23:55:00.927Z,6.81
2023-04-01T23:57:35.666Z,6.75
